createdAt,value
2018-02-27T00:01:09.689Z,82.92
2018-02-27T00:03:37.275Z,82.99
2018-02-27T00:06:04.837Z,82.97
2018-02-27T00:08:32.416Z,82.85
2018-02-27T00:10:59.978Z,82.59
2018-02-27T00:13:27.619Z,82.59
2018-02-27T00:15:55.176Z,82.58
2018-02-27T00:18:22.746Z,82.66
2018-02-27T00:20:50.383Z,82.62
2018-02-27T00:23:17.990Z,82.51
2018-02-27T00:25:45.566Z,82.25
2018-02-27T00:28:13.142Z,82.32
2018-02-27T00:30:40.776Z,82.28
2018-02-27T00:33:08.338Z,81.97
2018-02-27T00:35:35.958Z,82.16
2018-02-27T00:38:03.518Z,82.23
2018-02-27T00:40:31.082Z,82.38
2018-02-27T00:42:58.651Z,82.51
2018-02-27T00:45:26.212Z,82.22
2018-02-27T00:47:53.843Z,81.93
2018-02-27T00:50:21.388Z,81.75
2018-02-27T00:52:49.070Z,81.89
2018-02-27T00:55:16.691Z,82.14
2018-02-27T00:57:44.260Z,82.09
2018-02-27T01:00:11.834Z,82.20
2018-02-27T01:02:39.451Z,82.15
2018-02-27T01:05:07.085Z,82.26
2018-02-27T01:07:34.647Z,82.41
2018-02-27T01:10:02.224Z,82.13
2018-02-27T01:12:29.891Z,82.03
2018-02-27T01:14:57.559Z,82.19
2018-02-27T01:17:25.123Z,82.06
2018-02-27T01:19:52.695Z,81.92
2018-02-27T01:22:20.342Z,81.80
2018-02-27T01:24:47.972Z,81.75
2018-02-27T01:27:15.611Z,82.08
2018-02-27T01:29:43.156Z,82.11
2018-02-27T01:32:10.762Z,82.25
2018-02-27T01:34:39.106Z,82.29
2018-02-27T01:37:06.663Z,82.27
2018-02-27T01:39:34.238Z,81.98
2018-02-27T01:42:01.797Z,81.94
2018-02-27T01:44:29.367Z,81.89
2018-02-27T01:46:56.948Z,81.96
2018-02-27T01:49:24.642Z,81.81
2018-02-27T01:51:52.317Z,81.66
2018-02-27T01:54:19.874Z,81.61
2018-02-27T01:56:47.456Z,81.67
2018-02-27T01:59:15.087Z,81.71
2018-02-27T02:01:42.731Z,81.53
2018-02-27T02:04:10.365Z,81.55
2018-02-27T02:06:37.953Z,81.37
2018-02-27T02:09:05.587Z,81.66
2018-02-27T02:11:33.198Z,81.61
2018-02-27T02:14:00.763Z,81.45
2018-02-27T02:16:28.323Z,81.24
2018-02-27T02:18:55.893Z,81.71
2018-02-27T02:21:23.472Z,81.56
2018-02-27T02:23:51.161Z,81.40
2018-02-27T02:26:18.823Z,81.42
2018-02-27T02:28:46.457Z,81.12
2018-02-27T02:31:14.084Z,81.10
2018-02-27T02:33:41.643Z,81.06
2018-02-27T02:36:09.224Z,80.76
2018-02-27T02:38:36.846Z,80.36
2018-02-27T02:41:04.433Z,80.60
2018-02-27T02:43:32.083Z,80.65
2018-02-27T02:45:59.706Z,80.89
2018-02-27T02:48:27.272Z,80.60
2018-02-27T02:50:54.898Z,80.43
2018-02-27T02:53:22.470Z,80.59
2018-02-27T02:55:50.027Z,80.69
2018-02-27T02:58:17.659Z,80.99
2018-02-27T03:00:45.223Z,81.06
2018-02-27T03:03:12.800Z,80.95
2018-02-27T03:05:40.424Z,80.91
2018-02-27T03:08:08.039Z,81.09
2018-02-27T03:10:35.608Z,80.86
2018-02-27T03:13:03.179Z,80.83
2018-02-27T03:15:30.746Z,80.81
2018-02-27T03:17:58.379Z,80.98
2018-02-27T03:20:25.959Z,80.95
2018-02-27T03:22:53.525Z,81.14
2018-02-27T03:25:21.188Z,81.06
2018-02-27T03:27:48.760Z,81.23
2018-02-27T03:30:16.327Z,81.39
2018-02-27T03:32:43.959Z,81.78
2018-02-27T03:35:11.522Z,81.83
2018-02-27T03:37:39.170Z,81.65
2018-02-27T03:40:06.742Z,82.07
2018-02-27T03:42:34.438Z,82.34
2018-02-27T03:45:02.065Z,82.66
2018-02-27T03:47:29.634Z,82.78
2018-02-27T03:49:57.188Z,82.90
2018-02-27T03:52:24.806Z,83.39
2018-02-27T03:54:52.453Z,83.41
2018-02-27T03:57:20.081Z,83.39
2018-02-27T03:59:47.668Z,83.52
2018-02-27T04:02:15.294Z,83.71
2018-02-27T04:04:42.979Z,84.01
2018-02-27T04:07:10.543Z,83.83
2018-02-27T04:09:38.102Z,83.68
2018-02-27T04:12:05.738Z,83.75
2018-02-27T04:14:33.369Z,83.73
2018-02-27T04:17:00.935Z,83.42
2018-02-27T04:19:28.499Z,83.39
2018-02-27T04:21:56.126Z,83.28
2018-02-27T04:24:23.691Z,83.33
2018-02-27T04:26:51.260Z,83.33
2018-02-27T04:29:18.842Z,83.30
2018-02-27T04:31:46.400Z,83.19
2018-02-27T04:34:14.031Z,83.32
2018-02-27T04:36:41.602Z,83.13
2018-02-27T04:39:09.298Z,83.04
2018-02-27T04:41:36.858Z,83.18
2018-02-27T04:44:04.425Z,83.78
2018-02-27T04:46:32.003Z,83.36
2018-02-27T04:48:59.570Z,83.18
2018-02-27T04:51:27.200Z,83.29
2018-02-27T04:53:54.770Z,83.21
2018-02-27T04:56:22.358Z,83.28
2018-02-27T04:58:49.925Z,83.27
2018-02-27T05:01:17.571Z,83.21
2018-02-27T05:03:45.212Z,83.04
2018-02-27T05:06:12.787Z,82.36
2018-02-27T05:08:40.378Z,82.53
2018-02-27T05:11:08.019Z,82.21
2018-02-27T05:13:35.662Z,82.24
2018-02-27T05:16:03.255Z,82.40
2018-02-27T05:18:30.893Z,82.71
2018-02-27T05:20:58.519Z,82.55
2018-02-27T05:23:26.144Z,82.47
2018-02-27T05:25:53.727Z,82.35
2018-02-27T05:28:21.291Z,82.09
2018-02-27T05:30:48.862Z,81.93
2018-02-27T05:33:16.433Z,81.67
2018-02-27T05:35:44.122Z,81.59
2018-02-27T05:38:11.683Z,81.57
2018-02-27T05:40:39.247Z,81.08
2018-02-27T05:43:06.830Z,80.95
2018-02-27T05:45:34.464Z,80.81
2018-02-27T05:48:02.104Z,80.30
2018-02-27T05:50:29.682Z,80.26
2018-02-27T05:52:57.285Z,79.83
2018-02-27T05:55:24.917Z,79.64
2018-02-27T05:57:52.547Z,79.40
2018-02-27T06:00:20.138Z,79.26
2018-02-27T06:02:47.774Z,79.09
2018-02-27T06:05:15.458Z,79.20
2018-02-27T06:07:43.026Z,78.67
2018-02-27T06:10:10.601Z,79.17
2018-02-27T06:12:38.209Z,79.29
2018-02-27T06:15:05.844Z,78.78
2018-02-27T06:17:33.484Z,78.50
2018-02-27T06:20:01.031Z,77.96
2018-02-27T06:22:28.608Z,78.60
2018-02-27T06:24:56.254Z,78.44
2018-02-27T06:27:23.903Z,77.74
2018-02-27T06:29:51.466Z,77.59
2018-02-27T06:32:19.100Z,77.04
2018-02-27T06:34:46.690Z,76.91
2018-02-27T06:37:14.282Z,76.84
2018-02-27T06:39:41.868Z,76.95
2018-02-27T06:42:09.443Z,76.59
2018-02-27T06:44:37.131Z,75.89
2018-02-27T06:47:04.797Z,76.17
2018-02-27T06:49:32.422Z,75.96
2018-02-27T06:51:59.989Z,76.11
2018-02-27T06:54:27.620Z,76.51
2018-02-27T06:56:55.179Z,77.17
2018-02-27T06:59:22.742Z,77.36
2018-02-27T07:01:50.419Z,76.66
2018-02-27T07:04:18.060Z,75.22
2018-02-27T07:06:45.622Z,75.22
2018-02-27T07:09:13.203Z,74.79
2018-02-27T07:11:40.826Z,74.04
2018-02-27T07:14:08.406Z,73.83
2018-02-27T07:16:35.966Z,74.14
2018-02-27T07:19:03.538Z,73.42
2018-02-27T07:21:31.103Z,73.62
2018-02-27T07:23:58.718Z,73.56
2018-02-27T07:26:26.282Z,73.65
2018-02-27T07:28:53.843Z,73.06
2018-02-27T07:31:21.462Z,72.74
2018-02-27T07:33:49.032Z,72.91
2018-02-27T07:36:16.619Z,72.48
2018-02-27T07:38:44.223Z,72.38
2018-02-27T07:41:11.855Z,72.09
2018-02-27T07:43:39.422Z,72.15
2018-02-27T07:46:06.986Z,71.62
2018-02-27T07:48:34.563Z,70.96
2018-02-27T07:51:02.195Z,70.94
2018-02-27T07:53:29.782Z,70.46
2018-02-27T07:55:57.368Z,70.27
2018-02-27T07:58:25.050Z,69.91
2018-02-27T08:00:52.614Z,69.34
2018-02-27T08:03:20.181Z,68.95
2018-02-27T08:05:47.766Z,68.98
2018-02-27T08:08:15.339Z,68.76
2018-02-27T08:10:42.919Z,68.93
2018-02-27T08:13:10.559Z,69.10
2018-02-27T08:15:38.138Z,68.87
2018-02-27T08:18:05.704Z,69.03
2018-02-27T08:20:33.344Z,67.78
2018-02-27T08:23:00.915Z,68.02
2018-02-27T08:25:28.492Z,67.83
2018-02-27T08:27:56.071Z,67.02
2018-02-27T08:30:23.711Z,66.99
2018-02-27T08:32:51.313Z,66.83
2018-02-27T08:35:18.891Z,65.11
2018-02-27T08:37:46.504Z,64.63
2018-02-27T08:40:14.071Z,63.61
2018-02-27T08:42:41.640Z,63.30
2018-02-27T08:45:09.289Z,63.79
2018-02-27T08:47:36.856Z,63.05
2018-02-27T08:50:04.495Z,63.29
2018-02-27T08:52:32.056Z,63.99
2018-02-27T08:54:59.691Z,63.68
2018-02-27T08:57:27.282Z,64.19
2018-02-27T08:59:54.919Z,62.82
2018-02-27T09:02:22.513Z,62.54
2018-02-27T09:04:50.074Z,61.74
2018-02-27T09:07:17.707Z,61.30
2018-02-27T09:09:45.276Z,60.13
2018-02-27T09:12:12.855Z,59.11
2018-02-27T09:14:40.513Z,59.46
2018-02-27T09:17:08.194Z,58.40
2018-02-27T09:19:35.764Z,58.97
2018-02-27T09:22:03.388Z,59.82
2018-02-27T09:24:31.025Z,60.38
2018-02-27T09:26:58.647Z,59.64
2018-02-27T09:29:26.214Z,59.69
2018-02-27T09:31:53.839Z,60.67
2018-02-27T09:34:21.468Z,61.02
2018-02-27T09:36:49.026Z,59.37
2018-02-27T09:39:16.587Z,59.70
2018-02-27T09:41:44.158Z,60.84
2018-02-27T09:44:11.723Z,60.55
2018-02-27T09:46:39.310Z,59.23
2018-02-27T09:49:06.945Z,59.89
2018-02-27T09:51:34.522Z,60.47
2018-02-27T09:54:02.172Z,59.66
2018-02-27T09:56:29.793Z,58.85
2018-02-27T09:58:57.366Z,57.92
2018-02-27T10:01:24.937Z,57.09
2018-02-27T10:03:52.509Z,56.20
2018-02-27T10:06:20.071Z,56.78
2018-02-27T10:08:47.651Z,57.88
2018-02-27T10:11:15.280Z,58.58
2018-02-27T10:13:42.852Z,59.44
2018-02-27T10:16:10.488Z,58.38
2018-02-27T10:18:38.055Z,58.06
2018-02-27T10:21:05.704Z,57.53
2018-02-27T10:23:33.266Z,56.89
2018-02-27T10:26:00.875Z,56.70
2018-02-27T10:28:28.514Z,55.38
2018-02-27T10:30:56.118Z,56.27
2018-02-27T10:33:23.832Z,56.29
2018-02-27T10:35:51.532Z,56.91
2018-02-27T10:38:19.228Z,56.85
2018-02-27T10:40:46.836Z,57.77
2018-02-27T10:43:14.468Z,59.56
2018-02-27T10:45:42.091Z,57.52
2018-02-27T10:48:09.702Z,56.38
2018-02-27T10:50:37.263Z,57.18
2018-02-27T10:53:04.827Z,56.82
2018-02-27T10:55:32.398Z,55.84
2018-02-27T10:57:59.944Z,54.47
2018-02-27T11:00:33.080Z,53.12
2018-02-27T11:03:00.643Z,53.15
2018-02-27T11:05:28.222Z,52.20
2018-02-27T11:07:55.801Z,51.63
2018-02-27T11:10:23.434Z,52.24
2018-02-27T11:12:51.013Z,51.29
2018-02-27T11:15:18.649Z,53.72
2018-02-27T11:17:46.308Z,55.32
2018-02-27T11:20:13.851Z,55.57
2018-02-27T11:22:41.422Z,54.54
2018-02-27T11:25:08.986Z,54.98
2018-02-27T11:27:36.668Z,54.50
2018-02-27T11:30:04.272Z,54.69
2018-02-27T11:32:31.883Z,53.05
2018-02-27T11:34:59.511Z,52.51
2018-02-27T11:37:27.076Z,51.31
2018-02-27T11:39:54.664Z,49.75
2018-02-27T11:42:22.226Z,48.95
2018-02-27T11:44:49.935Z,50.18
2018-02-27T11:47:17.555Z,49.86
2018-02-27T11:49:45.218Z,49.89
2018-02-27T11:52:12.792Z,48.38
2018-02-27T11:54:40.350Z,48.12
2018-02-27T11:57:07.918Z,48.43
2018-02-27T11:59:35.479Z,50.54
2018-02-27T12:02:03.108Z,50.22
2018-02-27T12:04:30.666Z,49.46
2018-02-27T12:06:58.343Z,49.52
2018-02-27T12:09:25.917Z,50.35
2018-02-27T12:11:53.551Z,52.61
2018-02-27T12:14:21.127Z,51.13
2018-02-27T12:16:48.699Z,50.22
2018-02-27T12:19:16.274Z,52.43
2018-02-27T12:21:43.842Z,52.51
2018-02-27T12:24:11.474Z,51.80
2018-02-27T12:26:39.032Z,51.65
2018-02-27T12:29:06.604Z,53.42
2018-02-27T12:31:34.238Z,53.62
2018-02-27T12:34:12.845Z,52.51
2018-02-27T12:36:40.448Z,53.81
2018-02-27T12:39:08.075Z,53.21
2018-02-27T12:41:35.656Z,53.36
2018-02-27T12:44:03.221Z,53.78
2018-02-27T12:46:30.839Z,53.36
2018-02-27T12:48:58.469Z,54.03
2018-02-27T12:51:26.035Z,54.22
2018-02-27T12:53:53.644Z,52.12
2018-02-27T12:56:21.209Z,51.40
2018-02-27T12:58:48.787Z,50.80
2018-02-27T13:01:16.447Z,50.21
2018-02-27T13:03:44.141Z,49.83
2018-02-27T13:06:12.595Z,51.07
2018-02-27T13:08:40.176Z,51.21
2018-02-27T13:11:07.742Z,52.42
2018-02-27T13:13:35.314Z,51.52
2018-02-27T13:16:02.902Z,50.69
2018-02-27T13:18:30.592Z,50.10
2018-02-27T13:20:58.230Z,50.58
2018-02-27T13:23:25.806Z,51.29
2018-02-27T13:25:53.503Z,51.99
2018-02-27T13:28:21.132Z,53.31
2018-02-27T13:30:48.932Z,53.80
2018-02-27T13:33:16.502Z,53.91
2018-02-27T13:35:44.126Z,51.81
2018-02-27T13:38:11.767Z,51.29
2018-02-27T13:40:39.338Z,50.93
2018-02-27T13:43:06.969Z,52.34
2018-02-27T13:45:34.583Z,52.45
2018-02-27T13:48:02.207Z,53.72
2018-02-27T13:50:29.791Z,55.49
2018-02-27T13:52:57.359Z,56.50
2018-02-27T13:55:25.772Z,56.94
2018-02-27T13:57:53.353Z,56.47
2018-02-27T14:00:20.979Z,56.54
2018-02-27T14:02:48.603Z,56.73
2018-02-27T14:05:16.164Z,56.79
2018-02-27T14:07:43.746Z,57.14
2018-02-27T14:10:11.320Z,57.21
2018-02-27T14:12:38.921Z,58.08
2018-02-27T14:15:06.489Z,59.34
2018-02-27T14:17:34.069Z,59.18
2018-02-27T14:20:01.639Z,59.67
2018-02-27T14:22:29.211Z,59.88
2018-02-27T14:24:56.802Z,60.49
2018-02-27T14:27:24.371Z,60.74
2018-02-27T14:29:51.936Z,59.70
2018-02-27T14:32:19.515Z,60.61
2018-02-27T14:34:47.112Z,60.25
2018-02-27T14:37:14.690Z,59.93
2018-02-27T14:39:42.312Z,61.11
2018-02-27T14:42:09.880Z,60.60
2018-02-27T14:44:37.438Z,60.74
2018-02-27T14:47:05.025Z,61.40
2018-02-27T14:49:32.599Z,60.78
2018-02-27T14:52:00.194Z,62.43
2018-02-27T14:54:27.749Z,62.65
2018-02-27T14:56:55.361Z,63.59
2018-02-27T14:59:22.927Z,62.96
2018-02-27T15:01:50.500Z,62.67
2018-02-27T15:04:18.087Z,64.37
2018-02-27T15:06:45.695Z,63.45
2018-02-27T15:09:13.270Z,63.87
2018-02-27T15:11:40.833Z,63.52
2018-02-27T15:14:08.417Z,63.55
2018-02-27T15:16:36.021Z,64.75
2018-02-27T15:19:03.574Z,64.25
2018-02-27T15:21:31.165Z,64.94
2018-02-27T15:23:58.748Z,64.87
2018-02-27T15:26:26.338Z,65.27
2018-02-27T15:28:53.896Z,65.98
2018-02-27T15:31:21.490Z,66.39
2018-02-27T15:33:49.113Z,67.07
2018-02-27T15:36:16.725Z,66.87
2018-02-27T15:38:44.302Z,67.73
2018-02-27T15:41:11.880Z,68.51
2018-02-27T15:43:39.469Z,69.20
2018-02-27T15:46:07.034Z,69.00
2018-02-27T15:48:34.639Z,68.24
2018-02-27T15:51:02.250Z,68.28
2018-02-27T15:53:29.863Z,69.19
2018-02-27T15:55:57.475Z,69.38
2018-02-27T15:58:25.066Z,69.47
2018-02-27T16:00:52.639Z,69.24
2018-02-27T16:03:20.199Z,69.21
2018-02-27T16:05:47.777Z,69.71
2018-02-27T16:08:15.336Z,69.85
2018-02-27T16:10:42.982Z,69.76
2018-02-27T16:13:10.565Z,70.05
2018-02-27T16:15:38.140Z,70.43
2018-02-27T16:18:05.719Z,70.42
2018-02-27T16:20:33.315Z,70.35
2018-02-27T16:23:00.955Z,70.36
2018-02-27T16:25:28.534Z,70.79
2018-02-27T16:27:56.121Z,70.94
2018-02-27T16:30:23.679Z,71.25
2018-02-27T16:32:51.329Z,71.77
2018-02-27T16:35:18.894Z,72.36
2018-02-27T16:37:46.474Z,72.35
2018-02-27T16:40:14.055Z,72.90
2018-02-27T16:42:41.622Z,73.38
2018-02-27T16:45:09.216Z,74.21
2018-02-27T16:47:36.809Z,74.63
2018-02-27T16:50:04.419Z,75.05
2018-02-27T16:52:31.992Z,74.98
2018-02-27T16:54:59.569Z,75.04
2018-02-27T16:57:42.860Z,74.97
2018-02-27T17:00:10.443Z,75.17
2018-02-27T17:02:38.019Z,75.40
2018-02-27T17:05:05.591Z,74.74
2018-02-27T17:07:33.227Z,74.51
2018-02-27T17:10:00.847Z,74.17
2018-02-27T17:12:28.424Z,74.04
2018-02-27T17:14:56.007Z,74.00
2018-02-27T17:17:23.574Z,73.80
2018-02-27T17:19:51.191Z,74.58
2018-02-27T17:22:18.785Z,74.29
2018-02-27T17:24:46.403Z,74.19
2018-02-27T17:27:14.026Z,74.16
2018-02-27T17:29:41.608Z,74.57
2018-02-27T17:32:09.188Z,74.43
2018-02-27T17:34:36.755Z,75.20
2018-02-27T17:37:04.334Z,74.79
2018-02-27T17:39:31.922Z,75.21
2018-02-27T17:41:59.503Z,75.62
2018-02-27T17:44:27.067Z,75.82
2018-02-27T17:46:54.748Z,75.85
2018-02-27T17:49:22.338Z,76.45
2018-02-27T17:51:49.924Z,76.55
2018-02-27T17:54:17.496Z,76.89
2018-02-27T17:56:45.064Z,76.89
2018-02-27T17:59:12.640Z,77.33
2018-02-27T18:01:40.207Z,77.54
2018-02-27T18:04:07.828Z,77.25
2018-02-27T18:06:35.402Z,76.99
2018-02-27T18:09:03.043Z,77.26
2018-02-27T18:11:30.619Z,77.41
2018-02-27T18:13:58.184Z,77.26
2018-02-27T18:16:25.766Z,77.52
2018-02-27T18:18:53.323Z,77.42
2018-02-27T18:21:20.940Z,77.54
2018-02-27T18:23:48.493Z,77.45
2018-02-27T18:26:16.148Z,77.27
2018-02-27T18:28:43.702Z,77.53
2018-02-27T18:31:11.271Z,77.66
2018-02-27T18:33:38.849Z,77.69
2018-02-27T18:36:07.338Z,77.47
2018-02-27T18:38:34.923Z,77.33
2018-02-27T18:41:02.512Z,77.11
2018-02-27T18:43:30.207Z,76.79
2018-02-27T18:45:57.751Z,76.84
2018-02-27T18:48:25.315Z,76.77
2018-02-27T18:50:52.883Z,76.60
2018-02-27T18:53:20.454Z,76.57
2018-02-27T18:55:48.038Z,76.58
2018-02-27T18:58:15.604Z,76.30
2018-02-27T19:00:43.221Z,76.78
2018-02-27T19:03:10.806Z,76.36
2018-02-27T19:05:38.372Z,76.65
2018-02-27T19:08:05.970Z,76.99
2018-02-27T19:10:33.539Z,76.98
2018-02-27T19:13:01.115Z,76.51
2018-02-27T19:15:28.682Z,76.77
2018-02-27T19:17:56.277Z,76.76
2018-02-27T19:20:23.837Z,76.56
2018-02-27T19:22:51.445Z,76.66
2018-02-27T19:25:19.015Z,76.66
2018-02-27T19:27:46.583Z,76.68
2018-02-27T19:30:14.176Z,76.82
2018-02-27T19:32:41.749Z,76.89
2018-02-27T19:35:09.327Z,76.85
2018-02-27T19:37:36.921Z,76.94
2018-02-27T19:40:04.534Z,76.61
2018-02-27T19:42:32.104Z,76.72
2018-02-27T19:44:59.680Z,76.05
2018-02-27T19:47:27.268Z,75.96
2018-02-27T19:49:54.835Z,76.02
2018-02-27T19:52:22.407Z,76.17
2018-02-27T19:54:49.970Z,76.21
2018-02-27T19:57:17.589Z,76.46
2018-02-27T19:59:45.158Z,76.76
2018-02-27T20:02:12.719Z,76.78
2018-02-27T20:04:41.131Z,76.73
2018-02-27T20:07:08.695Z,77.09
2018-02-27T20:09:36.267Z,77.10
2018-02-27T20:12:03.831Z,76.53
2018-02-27T20:14:31.398Z,76.91
2018-02-27T20:16:59.023Z,76.52
2018-02-27T20:19:26.598Z,76.65
2018-02-27T20:21:54.162Z,76.55
2018-02-27T20:24:21.779Z,77.00
2018-02-27T20:26:49.350Z,76.81
2018-02-27T20:29:21.414Z,76.74
2018-02-27T20:31:49.027Z,76.75
2018-02-27T20:34:16.659Z,76.61
2018-02-27T20:36:44.385Z,76.75
2018-02-27T20:39:17.522Z,77.09
2018-02-27T20:41:45.117Z,77.11
2018-02-27T20:44:12.694Z,77.32
2018-02-27T20:46:40.258Z,77.36
2018-02-27T20:49:07.850Z,77.33
2018-02-27T20:51:35.421Z,77.48
2018-02-27T20:54:02.996Z,77.18
2018-02-27T20:56:30.562Z,76.98
2018-02-27T20:58:58.132Z,77.11
2018-02-27T21:01:25.703Z,77.19
2018-02-27T21:03:53.271Z,77.20
2018-02-27T21:06:20.851Z,77.65
2018-02-27T21:08:48.414Z,77.90
2018-02-27T21:11:15.988Z,77.91
2018-02-27T21:13:43.558Z,78.20
2018-02-27T21:16:11.165Z,78.09
2018-02-27T21:18:38.746Z,77.95
2018-02-27T21:21:06.312Z,78.18
2018-02-27T21:23:33.871Z,78.28
2018-02-27T21:26:01.435Z,78.28
2018-02-27T21:28:29.002Z,78.29
2018-02-27T21:30:56.569Z,78.57
2018-02-27T21:33:24.165Z,78.82
2018-02-27T21:35:51.722Z,79.35
2018-02-27T21:38:19.290Z,79.82
2018-02-27T21:40:46.871Z,80.34
2018-02-27T21:43:14.471Z,80.85
2018-02-27T21:45:42.061Z,81.44
2018-02-27T21:48:09.655Z,82.15
2018-02-27T21:50:37.239Z,82.21
2018-02-27T21:53:04.809Z,82.46
2018-02-27T21:55:32.428Z,82.78
2018-02-27T21:57:59.999Z,82.98
2018-02-27T22:00:27.572Z,83.31
2018-02-27T22:02:55.158Z,83.66
2018-02-27T22:05:22.727Z,83.76
2018-02-27T22:07:50.302Z,83.58
2018-02-27T22:10:17.870Z,83.90
2018-02-27T22:12:45.464Z,84.16
2018-02-27T22:15:13.027Z,84.26
2018-02-27T22:17:40.590Z,84.51
2018-02-27T22:20:08.174Z,84.82
2018-02-27T22:22:35.766Z,85.22
2018-02-27T22:25:03.369Z,85.69
2018-02-27T22:27:30.954Z,85.60
2018-02-27T22:29:58.558Z,85.57
2018-02-27T22:32:26.145Z,85.62
2018-02-27T22:34:53.711Z,85.66
2018-02-27T22:37:21.299Z,85.92
2018-02-27T22:39:48.866Z,85.82
2018-02-27T22:42:16.439Z,85.77
2018-02-27T22:44:44.002Z,85.81
2018-02-27T22:47:11.580Z,86.09
2018-02-27T22:49:39.135Z,86.20
2018-02-27T22:52:06.738Z,86.32
2018-02-27T22:54:34.319Z,86.46
2018-02-27T22:57:01.903Z,86.48
2018-02-27T22:59:29.474Z,86.48
2018-02-27T23:01:57.041Z,86.28
2018-02-27T23:04:24.631Z,86.17
2018-02-27T23:06:52.210Z,85.94
2018-02-27T23:09:19.815Z,85.56
2018-02-27T23:11:47.384Z,85.40
2018-02-27T23:14:14.951Z,85.24
2018-02-27T23:16:42.532Z,85.05
2018-02-27T23:19:10.100Z,84.92
2018-02-27T23:21:37.715Z,84.78
2018-02-27T23:24:08.942Z,84.52
2018-02-27T23:26:40.800Z,84.35
2018-02-27T23:29:09.166Z,84.12
2018-02-27T23:31:37.968Z,83.98
2018-02-27T23:34:19.114Z,84.02
2018-02-27T23:36:46.685Z,83.93
2018-02-27T23:39:14.260Z,83.97
2018-02-27T23:41:41.819Z,84.02
2018-02-27T23:44:09.395Z,83.77
2018-02-27T23:46:36.954Z,84.12
2018-02-27T23:49:04.578Z,84.34
2018-02-27T23:51:32.155Z,84.28
2018-02-27T23:53:59.734Z,83.76
2018-02-27T23:56:27.311Z,83.65
2018-02-27T23:58:54.887Z,83.90
